Preview of NWS' New Version of Forecast
This preview is not operational and should not be used for support decisions.
Latest weather observations around

COTTAGE (STUC1)

Using English Units (Switch to International System of Units)
Date/ Time (PDT) Wind (mph) Vis. (mi) Weather Sky Cond. Temp (°F) Rel. Humidity Wind Chill (°F) Heat Index (°F) Pressure Precip. (in)
Air Dwpt 6 hour Altimeter (inHg) Sea level (inHg) 1 hr 3 hr 6 hr
Max Min
Aug 20 14:54 S 5   Clear   80 48     33%   79          
Notice The following observation data may not be complete
Aug 20 13:54 SSW 6   Clear     47      %              
Aug 20 12:54 SSE 8   Clear   78 45     31%   77          
Aug 20 11:54 SSE 8   Clear   76 42     30%   75          
Aug 20 10:54 SE 8   Clear   74 43     33%   73          
Aug 20 09:54 SE 9   Clear   72 44     36%   71          
Aug 20 08:54 SE 9   Clear   68 43     41%              
Aug 20 07:54 SE 7   Clear   67 44     43%              
Aug 20 06:54 ESE 8   Clear   62 42     48%              
Aug 20 05:54 ESE 8   Clear   59 42     53%              
Aug 20 04:54 ESE 7   Clear   60 44     55%              
Aug 20 03:54 ESE 8   Clear   61 44     54%              
Aug 20 02:54 ESE 7   Clear   60 44     55%              
Aug 20 01:54 SE 7   Clear   61 44     54%              
Aug 20 00:54 ESE 6   Clear   62 43     50%              
Aug 19 23:54 E 5   Clear   63 42     46%              
Aug 19 22:54 E 3   Clear   64 42     44%              
Aug 19 21:54 E 4   Clear   63 45     52%              
Aug 19 20:54 NNW 3   Clear   61 47     61%              
Aug 19 19:54 NW 5   Clear   64 47     54%              
Aug 19 18:54 WNW 5   Clear   72 48     42%   71          
Aug 19 17:54 SSW 4   Clear   74 45     36%   73          
Aug 19 16:54 SSW 7   Clear   75 43     32%   74          
Aug 19 15:54 SSW 8   Clear   76 43     31%   75          
Aug 19 14:54 S 10   Clear   75 44     33%   74          
Aug 19 13:54 SSW 8   Clear   77 46     34%   76          
Aug 19 12:54 SSE 10   Clear   76 47     36%   75          
Aug 19 11:54 S 8   Clear   77 46     34%   76          
Aug 19 10:54 SE 9   Clear   73 45     37%   72          
Aug 19 09:54 SSE 10   Clear   71 42     35%   69          
Aug 19 08:54 SE 10   Clear   69 40     35%              
Aug 19 07:54 SE 10   Clear   67 38     34%              
Aug 19 06:54 SE 11   Clear   62 37     39%              
Aug 19 05:54 ESE 11   Clear   61 37     41%              
Aug 19 04:54 SE 10   Clear   60 42     51%              
Aug 19 03:54 SE 11   Clear   60 42     52%              
Aug 19 02:54 SE 12   Clear   61 44     53%              
Aug 19 01:54 ESE 9   Clear   61 45     56%              
Aug 19 00:54 SE 11   Clear   61 46     58%              
Aug 18 23:54 SE 10   Clear   61 47     61%              
Aug 18 22:54 SE 11   Clear   61 48     62%              
Aug 18 21:54 ESE 10   Clear   61 47     60%              
Aug 18 20:54 SE 7   Clear   60 46     60%              
Aug 18 19:54 SSW 4   Clear   63 47     55%              
Aug 18 18:54 S 5   Clear   69 47     45%              
Aug 18 17:54 S 7   Clear   71 47     42%   70          
Aug 18 16:54 SSW 8   Clear   75 48     39%   74          
Aug 18 15:54 S 9   Clear   76 48     37%   75          
Aug 18 14:54 S 10   Clear   77 49     37%   76          
Aug 18 13:54 SSE 12   Clear   77 49     37%   76          
Aug 18 12:54 S 10   Clear   78 47     34%   77          
Aug 18 11:54 S 9   Clear   78 47     33%   77          
Aug 18 10:54 SE 12   Clear   76 46     34%   75          
Aug 18 09:54 SSE 12   Clear   73 46     38%   72          
Aug 18 08:54 SE 11   Clear   71 44     38%   70          
Aug 18 07:54 SE 10   Clear   68 44     42%              
Aug 18 06:54 SE 10   Clear   64 42     45%              
Aug 18 05:54 ESE 12   Clear   62 42     48%              
Aug 18 04:54 ESE 10   Clear   63 42     47%              
Aug 18 03:54 ESE 11   Clear   63 40     43%              
Aug 18 02:54 ESE 11   Clear   63 40     42%              
Aug 18 01:54 ESE 11   Clear   63 39     41%              
Aug 18 00:54 ESE 11   Clear   64 43     46%              
Aug 17 23:54 ESE 9   Clear   65 43     44%              
Aug 17 22:54 E 6   Clear   64 42     45%              
Aug 17 21:54 E 5   Clear   64 42     44%              
Aug 17 20:54 SSE 2   Clear   66 43     43%              
Aug 17 19:54 SW 5   Clear   68 42     39%              
Aug 17 18:54 S 6   Clear   72 43     35%   71          
Aug 17 17:54 S 7   Clear   76 42     30%   75          
Aug 17 16:54 SSE 9   Clear   77 41     28%   76          
Aug 17 15:54 SSE 10   Clear   80 43     27%   79          
May 15 00:54 SW 2   Clear   48 38     68%              
May 14 19:54 NE 10   Clear   49 41     75% 45            
May 14 18:54 E 12   Clear   50 40     69% 45            
May 14 11:54 W 8   Clear   58 47     67%              
May 14 09:54 SW 4   Clear   60 47     61%              
May 13 19:54 WNW 11   Clear   50 41     72% 46            
May 12 15:54 SSW 11   Clear   55 31     39%              
May 11 20:54 NE 13   Clear   46 17     31% 40            
Jun 11 21:54 NE 7   Clear   31 31     100% 24            
Jun 11 01:54 SE 14   Clear   37 36     95% 28            
Jun 09 14:54 SSE 11   Clear   48 48     100% 43            
Jun 08 16:54 SE 14   Clear   45 44     98% 39            
Jun 06 12:54 SSE 10   Clear   74 28     18%   72          
Jun 06 04:54 ESE 10   Clear   59        %